createdAt,value
2023-03-16T00:00:22.695Z,10.50
2023-03-16T00:01:17.960Z,11.50
2023-03-16T00:02:13.131Z,7.70
2023-03-16T00:03:08.297Z,8.50
2023-03-16T00:04:03.428Z,9.70
2023-03-16T00:04:58.542Z,8.40
2023-03-16T00:05:53.592Z,9.80
2023-03-16T00:06:48.919Z,15.40
2023-03-16T00:07:43.972Z,9.70
2023-03-16T00:08:39.305Z,11.70
2023-03-16T00:09:34.495Z,10.80
2023-03-16T00:10:29.764Z,11.40
2023-03-16T00:11:24.888Z,10.90
2023-03-16T00:12:20.032Z,9.40
2023-03-16T00:13:15.227Z,14.60
2023-03-16T00:14:10.672Z,8.60
2023-03-16T00:15:05.647Z,10.70
2023-03-16T00:16:00.973Z,9.40
2023-03-16T00:16:56.001Z,12.70
2023-03-16T00:17:51.173Z,10.90
2023-03-16T00:18:46.448Z,10.20
2023-03-16T00:19:41.496Z,11.10
2023-03-16T00:20:36.614Z,10.60
2023-03-16T00:21:31.899Z,13.10
2023-03-16T00:22:27.241Z,14.70
2023-03-16T00:23:22.276Z,10.80
2023-03-16T00:24:17.479Z,8.70
2023-03-16T00:25:12.656Z,11.70
2023-03-16T00:26:07.800Z,12.70
2023-03-16T00:27:02.999Z,10.30
2023-03-16T00:27:58.293Z,11.50
2023-03-16T00:28:53.402Z,11.90
2023-03-16T00:29:48.462Z,9.90
2023-03-16T00:30:43.548Z,11.90
2023-03-16T00:31:38.703Z,11.50
2023-03-16T00:32:33.935Z,12.50
2023-03-16T00:33:29.108Z,15.50
2023-03-16T00:34:24.402Z,13.30
2023-03-16T00:35:19.413Z,13.70
2023-03-16T00:36:14.703Z,10.30
2023-03-16T00:37:09.912Z,11.10
2023-03-16T00:38:05.172Z,11.10
2023-03-16T00:39:00.165Z,12.30
2023-03-16T00:39:55.321Z,11.10
2023-03-16T00:40:50.440Z,13.90
2023-03-16T00:41:45.760Z,14.60
2023-03-16T00:42:40.967Z,10.60
2023-03-16T00:43:36.098Z,11.70
2023-03-16T00:44:31.385Z,12.70
2023-03-16T00:45:26.425Z,11.00
2023-03-16T00:46:21.573Z,10.20
2023-03-16T00:47:16.775Z,13.00
2023-03-16T00:48:11.946Z,13.10
2023-03-16T00:49:07.117Z,8.90
2023-03-16T00:50:02.226Z,10.20
2023-03-16T00:50:57.496Z,10.50
2023-03-16T00:51:52.585Z,9.60
2023-03-16T00:52:47.895Z,13.90
2023-03-16T00:53:42.895Z,13.10
2023-03-16T00:54:38.195Z,14.00
2023-03-16T00:55:33.186Z,10.40
2023-03-16T00:56:28.422Z,9.90
2023-03-16T00:57:23.540Z,13.80
2023-03-16T00:58:18.831Z,10.80
2023-03-16T00:59:13.954Z,13.80
2023-03-16T01:00:09.142Z,12.90
2023-03-16T01:01:04.341Z,11.40
2023-03-16T01:01:59.474Z,13.10
2023-03-16T01:02:54.834Z,12.40
2023-03-16T01:03:49.876Z,15.30
2023-03-16T01:04:45.127Z,11.10
2023-03-16T01:05:40.306Z,11.50
2023-03-16T01:06:35.468Z,10.40
2023-03-16T01:07:30.666Z,11.50
2023-03-16T01:08:25.846Z,10.20
2023-03-16T01:09:20.986Z,16.90
2023-03-16T01:10:16.160Z,12.40
2023-03-16T01:11:11.284Z,14.30
2023-03-16T01:12:06.565Z,13.30
2023-03-16T01:13:01.712Z,14.00
2023-03-16T01:13:56.996Z,13.70
2023-03-16T01:14:52.253Z,15.90
2023-03-16T01:15:47.419Z,13.90
2023-03-16T01:16:42.739Z,12.20
2023-03-16T01:17:37.829Z,13.90
2023-03-16T01:18:33.138Z,13.90
2023-03-16T01:19:28.155Z,13.60
2023-03-16T01:20:23.305Z,12.10
2023-03-16T01:21:18.568Z,15.80
2023-03-16T01:22:13.704Z,11.60
2023-03-16T01:23:08.894Z,11.60
2023-03-16T01:24:04.018Z,9.50
2023-03-16T01:24:59.385Z,10.70
2023-03-16T01:25:54.433Z,10.60
2023-03-16T01:26:49.691Z,13.20
2023-03-16T01:27:45.027Z,12.00
2023-03-16T01:28:40.032Z,12.10
2023-03-16T01:29:35.191Z,10.30
2023-03-16T01:30:30.398Z,10.70
2023-03-16T01:31:25.522Z,10.50
2023-03-16T01:32:20.822Z,10.90
2023-03-16T01:33:15.996Z,12.70
2023-03-16T01:34:11.124Z,11.30
2023-03-16T01:35:06.358Z,8.80
2023-03-16T01:36:01.630Z,11.60
2023-03-16T01:36:56.572Z,11.70
2023-03-16T01:37:51.888Z,10.90
2023-03-16T01:38:46.889Z,9.90
2023-03-16T01:39:42.133Z,11.80
2023-03-16T01:40:37.265Z,11.60
2023-03-16T01:41:32.538Z,9.60
2023-03-16T01:42:27.678Z,12.90
2023-03-16T01:43:22.869Z,11.60
2023-03-16T01:44:18.017Z,11.60
2023-03-16T01:45:13.459Z,12.90
2023-03-16T01:46:09.270Z,10.40
2023-03-16T01:47:04.450Z,11.70
2023-03-16T01:47:59.666Z,11.10
2023-03-16T01:48:54.853Z,10.10
2023-03-16T01:49:50.104Z,10.70
2023-03-16T01:50:45.295Z,12.70
2023-03-16T01:51:40.452Z,10.40
2023-03-16T01:52:35.617Z,11.30
2023-03-16T01:53:30.954Z,10.80
2023-03-16T01:54:26.008Z,10.60
2023-03-16T01:55:21.280Z,13.40
2023-03-16T01:56:16.354Z,11.40
2023-03-16T01:58:38.413Z,12.30
2023-03-16T01:59:33.484Z,11.90
2023-03-16T02:00:28.745Z,9.70
2023-03-16T02:01:23.833Z,9.60
2023-03-16T02:02:18.900Z,13.40
2023-03-16T02:03:14.302Z,12.40
2023-03-16T02:04:09.361Z,11.80
2023-03-16T02:05:04.600Z,12.90
2023-03-16T02:05:59.749Z,10.50
2023-03-16T02:06:54.911Z,12.80
2023-03-16T02:07:50.079Z,10.10
2023-03-16T02:08:45.355Z,13.00
2023-03-16T02:09:40.390Z,11.00
2023-03-16T02:10:35.533Z,11.90
2023-03-16T02:11:30.708Z,11.30
2023-03-16T02:12:25.869Z,10.20
2023-03-16T02:13:21.174Z,11.40
2023-03-16T02:14:16.186Z,12.20
2023-03-16T02:15:11.408Z,9.70
2023-03-16T02:16:06.562Z,11.70
2023-03-16T02:17:01.718Z,13.00
2023-03-16T02:17:56.915Z,11.90
2023-03-16T02:18:52.233Z,11.20
2023-03-16T02:19:47.279Z,11.50
2023-03-16T02:20:42.559Z,12.00
2023-03-16T02:21:37.725Z,11.60
2023-03-16T02:22:32.889Z,11.00
2023-03-16T02:23:28.090Z,11.90
2023-03-16T02:24:23.311Z,13.80
2023-03-16T02:25:18.425Z,10.90
2023-03-16T02:26:13.565Z,12.70
2023-03-16T02:27:08.708Z,11.20
2023-03-16T02:28:04.043Z,13.40
2023-03-16T02:28:59.321Z,13.90
2023-03-16T02:29:54.385Z,12.10
2023-03-16T02:30:49.572Z,14.60
2023-03-16T02:31:44.732Z,14.70
2023-03-16T02:32:39.962Z,12.00
2023-03-16T02:33:35.264Z,13.70
2023-03-16T02:34:30.326Z,10.80
2023-03-16T02:35:25.487Z,12.00
2023-03-16T02:36:20.629Z,10.80
2023-03-16T02:37:15.786Z,10.80
2023-03-16T02:38:10.958Z,10.70
2023-03-16T02:39:06.270Z,12.00
2023-03-16T02:40:01.295Z,13.00
2023-03-16T02:40:56.425Z,14.90
2023-03-16T02:41:51.559Z,12.90
2023-03-16T02:42:46.838Z,13.90
2023-03-16T02:43:41.995Z,14.50
2023-03-16T02:45:53.934Z,11.00
2023-03-16T02:46:49.140Z,13.00
2023-03-16T02:47:44.328Z,12.10
2023-03-16T02:48:39.711Z,10.50
2023-03-16T02:49:34.775Z,16.30
2023-03-16T02:50:30.048Z,12.70
2023-03-16T02:51:25.170Z,11.90
2023-03-16T02:52:20.348Z,12.50
2023-03-16T02:53:15.536Z,13.20
2023-03-16T02:54:10.849Z,15.40
2023-03-16T02:55:05.863Z,12.10
2023-03-16T02:56:01.112Z,13.40
2023-03-16T02:56:56.318Z,12.00
2023-03-16T02:57:51.514Z,13.20
2023-03-16T02:58:46.770Z,13.80
2023-03-16T02:59:41.954Z,16.50
2023-03-16T03:00:37.196Z,14.20
2023-03-16T03:01:32.444Z,12.70
2023-03-16T03:02:27.632Z,12.60
2023-03-16T03:03:22.867Z,17.60
2023-03-16T03:04:18.162Z,12.90
2023-03-16T03:05:13.341Z,14.60
2023-03-16T03:06:08.688Z,15.20
2023-03-16T03:07:03.778Z,15.90
2023-03-16T03:07:59.113Z,13.10
2023-03-16T03:08:54.507Z,17.10
2023-03-16T03:09:49.592Z,14.90
2023-03-16T03:10:44.772Z,11.70
2023-03-16T03:11:39.998Z,14.90
2023-03-16T03:12:35.203Z,16.90
2023-03-16T03:13:30.419Z,16.40
2023-03-16T03:14:25.642Z,13.60
2023-03-16T03:15:20.964Z,15.90
2023-03-16T03:16:16.411Z,14.80
2023-03-16T03:17:11.480Z,15.40
2023-03-16T03:18:06.848Z,15.40
2023-03-16T03:19:01.944Z,13.60
2023-03-16T03:19:57.122Z,12.70
2023-03-16T03:20:52.474Z,17.40
2023-03-16T03:21:47.701Z,14.90
2023-03-16T03:22:42.893Z,16.30
2023-03-16T03:23:38.272Z,20.30
2023-03-16T03:24:33.382Z,17.70
2023-03-16T03:25:28.604Z,19.50
2023-03-16T03:26:23.947Z,18.50
2023-03-16T03:27:19.030Z,20.40
2023-03-16T03:28:14.429Z,18.60
2023-03-16T03:29:09.539Z,23.50
2023-03-16T03:30:04.740Z,20.30
2023-03-16T03:30:59.946Z,20.40
2023-03-16T03:31:55.224Z,23.50
2023-03-16T03:32:50.455Z,24.30
2023-03-16T03:33:45.726Z,20.80
2023-03-16T03:34:40.940Z,22.00
2023-03-16T03:35:36.315Z,26.50
2023-03-16T03:36:31.662Z,28.40
2023-03-16T03:37:26.824Z,26.10
2023-03-16T03:38:22.036Z,27.00
2023-03-16T03:39:17.264Z,24.10
2023-03-16T03:40:12.438Z,26.90
2023-03-16T03:41:07.666Z,26.30
2023-03-16T03:42:03.067Z,26.20
2023-03-16T03:42:58.138Z,23.20
2023-03-16T03:43:53.302Z,24.80
2023-03-16T03:44:48.557Z,28.60
2023-03-16T03:45:43.774Z,27.20
2023-03-16T03:46:39.183Z,30.10
2023-03-16T03:47:34.286Z,25.20
2023-03-16T03:48:29.292Z,31.70
2023-03-16T03:49:24.459Z,31.20
2023-03-16T03:50:19.608Z,31.10
2023-03-16T03:51:14.763Z,26.40
2023-03-16T03:52:10.197Z,29.30
2023-03-16T03:53:05.275Z,28.40
2023-03-16T03:54:00.509Z,24.70
2023-03-16T03:54:55.793Z,26.10
2023-03-16T03:55:51.030Z,28.70
2023-03-16T03:56:46.381Z,24.80
2023-03-16T03:57:41.694Z,34.30
2023-03-16T03:58:36.758Z,27.20
2023-03-16T03:59:31.992Z,33.80
2023-03-16T04:00:27.420Z,30.40
2023-03-16T04:01:22.453Z,30.60
2023-03-16T04:02:17.948Z,31.10
2023-03-16T04:03:12.972Z,29.30
2023-03-16T04:04:08.110Z,34.10
2023-03-16T04:05:03.361Z,33.00
2023-03-16T04:05:58.542Z,34.50
2023-03-16T04:06:53.915Z,34.70
2023-03-16T04:07:49.001Z,30.50
2023-03-16T04:08:44.337Z,34.80
2023-03-16T04:09:39.547Z,30.50
2023-03-16T04:10:34.891Z,29.80
2023-03-16T04:11:30.094Z,44.10
2023-03-16T04:12:25.349Z,37.50
2023-03-16T04:13:20.707Z,37.90
2023-03-16T04:14:16.500Z,37.10
2023-03-16T04:15:11.720Z,32.20
2023-03-16T04:16:06.940Z,32.70
2023-03-16T04:17:02.496Z,33.80
2023-03-16T04:17:57.610Z,36.80
2023-03-16T04:18:52.803Z,38.30
2023-03-16T04:19:48.104Z,36.80
2023-03-16T04:20:43.336Z,41.10
2023-03-16T04:21:38.705Z,36.60
2023-03-16T04:22:33.942Z,37.30
2023-03-16T04:23:29.132Z,41.80
2023-03-16T04:24:24.376Z,36.90
2023-03-16T04:25:19.656Z,42.50
2023-03-16T04:26:14.886Z,34.50
2023-03-16T04:27:10.108Z,31.90
2023-03-16T04:28:05.331Z,28.80
2023-03-16T04:29:00.528Z,27.80
2023-03-16T04:29:55.770Z,26.70
2023-03-16T04:30:51.267Z,31.00
2023-03-16T04:31:46.339Z,31.80
2023-03-16T04:32:41.675Z,27.20
2023-03-16T04:33:36.777Z,30.80
2023-03-16T04:34:32.137Z,26.30
2023-03-16T04:35:27.241Z,22.60
2023-03-16T04:36:22.657Z,29.60
2023-03-16T04:37:17.788Z,25.50
2023-03-16T04:38:12.994Z,26.50
2023-03-16T04:39:08.184Z,24.80
2023-03-16T04:40:03.417Z,25.00
2023-03-16T04:40:58.783Z,28.20
2023-03-16T04:41:53.983Z,26.20
2023-03-16T04:42:49.222Z,26.70
2023-03-16T04:43:44.480Z,23.90
2023-03-16T04:44:39.766Z,23.90
2023-03-16T04:45:36.277Z,27.10
2023-03-16T04:46:31.577Z,28.00
2023-03-16T04:47:26.772Z,23.70
2023-03-16T04:48:21.988Z,25.90
2023-03-16T04:49:17.202Z,29.40
2023-03-16T04:50:16.757Z,25.10
2023-03-16T04:51:12.029Z,27.40
2023-03-16T04:52:07.072Z,26.00
2023-03-16T04:53:02.311Z,23.40
2023-03-16T04:53:57.680Z,23.20
2023-03-16T04:54:52.894Z,25.50
2023-03-16T04:55:48.286Z,24.40
2023-03-16T04:56:43.265Z,23.50
2023-03-16T04:57:38.623Z,25.70
2023-03-16T04:58:33.739Z,28.70
2023-03-16T04:59:28.931Z,27.10
2023-03-16T05:00:24.185Z,24.30
2023-03-16T05:01:19.413Z,27.70
2023-03-16T05:02:14.625Z,25.00
2023-03-16T05:03:09.792Z,23.60
2023-03-16T05:04:05.123Z,26.00
2023-03-16T05:05:00.262Z,24.30
2023-03-16T05:05:55.568Z,23.90
2023-03-16T05:06:50.667Z,23.10
2023-03-16T05:07:45.857Z,23.60
2023-03-16T05:08:40.984Z,19.90
2023-03-16T05:09:36.273Z,20.40
2023-03-16T05:10:31.471Z,19.70
2023-03-16T05:11:26.649Z,24.20
2023-03-16T05:12:21.972Z,18.00
2023-03-16T05:13:17.029Z,22.60
2023-03-16T05:14:12.190Z,26.00
2023-03-16T05:15:07.546Z,22.00
2023-03-16T05:16:02.820Z,22.70
2023-03-16T05:16:58.065Z,21.00
2023-03-16T05:17:53.180Z,22.20
2023-03-16T05:18:48.318Z,20.50
2023-03-16T05:19:43.294Z,21.40
2023-03-16T05:20:38.390Z,22.90
2023-03-16T05:21:33.523Z,19.70
2023-03-16T05:22:28.495Z,23.10
2023-03-16T05:23:23.562Z,19.70
2023-03-16T05:24:18.683Z,19.70
2023-03-16T05:25:13.767Z,20.10
2023-03-16T05:26:09.039Z,17.70
2023-03-16T05:27:03.890Z,26.20
2023-03-16T05:27:58.949Z,17.20
2023-03-16T05:28:54.125Z,20.60
2023-03-16T05:29:49.382Z,19.80
2023-03-16T05:30:44.559Z,21.00
2023-03-16T05:31:39.497Z,17.90
2023-03-16T05:32:34.499Z,19.50
2023-03-16T05:33:29.508Z,18.20
2023-03-16T05:34:24.532Z,21.30
2023-03-16T05:35:19.584Z,18.90
2023-03-16T05:36:14.871Z,19.70
2023-03-16T05:37:09.991Z,17.20
2023-03-16T05:38:05.282Z,22.00
2023-03-16T05:39:00.676Z,16.40
2023-03-16T05:39:55.996Z,21.40
2023-03-16T05:40:51.525Z,19.40
2023-03-16T05:41:46.718Z,19.90
2023-03-16T05:42:42.051Z,23.90
2023-03-16T05:43:37.365Z,17.70
2023-03-16T05:44:32.700Z,20.00
2023-03-16T05:45:28.086Z,19.50
2023-03-16T05:46:26.125Z,18.00
2023-03-16T05:47:21.388Z,21.80
2023-03-16T05:48:16.725Z,20.50
2023-03-16T05:49:12.103Z,21.40
2023-03-16T05:50:07.580Z,20.50
2023-03-16T05:51:03.342Z,19.90
2023-03-16T05:51:58.829Z,21.40
2023-03-16T05:52:54.177Z,17.90
2023-03-16T05:53:49.563Z,19.60
2023-03-16T05:54:44.919Z,17.60
2023-03-16T05:55:40.417Z,21.70
2023-03-16T05:56:35.672Z,21.60
2023-03-16T05:57:31.001Z,20.20
2023-03-16T05:58:26.360Z,17.50
2023-03-16T05:59:21.736Z,20.20
2023-03-16T06:00:17.121Z,18.70
2023-03-16T06:01:12.727Z,19.20
2023-03-16T06:02:07.835Z,24.20
2023-03-16T06:03:03.274Z,21.90
2023-03-16T06:03:58.640Z,19.70
2023-03-16T06:04:53.930Z,23.00
2023-03-16T06:05:49.519Z,19.80
2023-03-16T06:06:44.832Z,19.50
2023-03-16T06:07:40.204Z,23.10
2023-03-16T06:08:35.646Z,20.10
2023-03-16T06:09:35.411Z,18.20
2023-03-16T06:10:30.855Z,16.10
2023-03-16T06:11:26.099Z,20.10
2023-03-16T06:12:21.491Z,20.20
2023-03-16T06:13:17.043Z,19.40
2023-03-16T06:14:12.428Z,17.30
2023-03-16T06:15:07.877Z,19.50
2023-03-16T06:16:03.445Z,22.20
2023-03-16T06:16:58.758Z,19.90
2023-03-16T06:17:54.368Z,18.50
2023-03-16T06:18:49.865Z,21.10
2023-03-16T06:19:45.269Z,18.70
2023-03-16T06:20:40.795Z,18.80
2023-03-16T06:21:36.180Z,21.10
2023-03-16T06:22:31.695Z,19.30
2023-03-16T06:23:26.738Z,18.60
2023-03-16T06:24:21.772Z,21.00
2023-03-16T06:25:16.981Z,20.80
2023-03-16T06:26:11.912Z,24.40
2023-03-16T06:27:06.961Z,18.60
2023-03-16T06:28:02.010Z,18.50
2023-03-16T06:28:57.106Z,20.80
2023-03-16T06:29:52.171Z,20.40
2023-03-16T06:30:47.247Z,16.50
2023-03-16T06:31:42.428Z,16.50
2023-03-16T06:32:37.387Z,18.90
2023-03-16T06:33:32.473Z,22.10
2023-03-16T06:34:27.491Z,17.60
2023-03-16T06:35:22.695Z,18.80
2023-03-16T06:36:17.594Z,19.20
2023-03-16T06:37:12.656Z,18.80
2023-03-16T06:38:07.699Z,17.20
2023-03-16T06:39:02.754Z,16.60
2023-03-16T06:39:57.808Z,18.10
2023-03-16T06:40:52.902Z,19.80
2023-03-16T06:41:47.920Z,16.80
2023-03-16T06:42:46.612Z,17.80
2023-03-16T06:43:39.458Z,18.00
2023-03-16T06:44:35.059Z,18.10
2023-03-16T06:45:30.481Z,17.70
2023-03-16T06:46:26.025Z,16.60
2023-03-16T06:47:21.500Z,21.40
2023-03-16T06:48:16.898Z,17.50
2023-03-16T06:49:12.320Z,17.90
2023-03-16T06:50:07.851Z,15.50
2023-03-16T06:51:03.296Z,19.00
2023-03-16T06:51:58.767Z,14.40
2023-03-16T06:52:54.234Z,18.80
2023-03-16T06:53:49.689Z,22.60
2023-03-16T06:54:45.136Z,14.80
2023-03-16T06:55:44.582Z,17.70
2023-03-16T06:56:39.773Z,15.20
2023-03-16T06:57:35.643Z,15.00
2023-03-16T06:58:31.250Z,14.40
2023-03-16T06:59:26.571Z,13.30
2023-03-16T07:00:22.182Z,12.00
2023-03-16T07:01:17.886Z,12.00
2023-03-16T07:02:13.138Z,15.30
2023-03-16T07:03:08.570Z,14.10
2023-03-16T07:04:04.075Z,14.10
2023-03-16T07:04:59.799Z,16.40
2023-03-16T07:05:54.544Z,13.20
2023-03-16T07:06:49.597Z,16.70
2023-03-16T07:07:44.774Z,15.20
2023-03-16T07:08:39.897Z,16.30
2023-03-16T07:09:38.205Z,14.50
2023-03-16T07:10:30.282Z,15.50
2023-03-16T07:11:25.108Z,19.30
2023-03-16T07:12:20.172Z,17.50
2023-03-16T07:13:15.225Z,17.00
2023-03-16T07:14:10.290Z,14.20
2023-03-16T07:15:05.474Z,12.90
2023-03-16T07:16:02.138Z,13.20
2023-03-16T07:16:57.653Z,13.40
2023-03-16T07:17:53.100Z,15.10
2023-03-16T07:18:48.545Z,12.70
2023-03-16T07:19:44.368Z,13.40
2023-03-16T07:20:39.699Z,14.60
2023-03-16T07:21:35.316Z,11.10
2023-03-16T07:22:30.755Z,13.00
2023-03-16T07:23:26.203Z,14.00
2023-03-16T07:24:21.698Z,14.80
2023-03-16T07:25:17.290Z,12.50
2023-03-16T07:26:12.468Z,14.30
2023-03-16T07:27:07.963Z,12.70
2023-03-16T07:28:03.497Z,14.60
2023-03-16T07:28:58.577Z,16.80
2023-03-16T07:29:53.854Z,12.70
2023-03-16T07:31:02.934Z,11.70
2023-03-16T07:31:44.962Z,12.60
2023-03-16T07:32:39.054Z,11.60
2023-03-16T07:33:33.956Z,10.90
2023-03-16T07:34:29.149Z,14.50
2023-03-16T07:35:24.351Z,10.10
2023-03-16T07:36:19.423Z,11.10
2023-03-16T07:37:14.394Z,10.10
2023-03-16T07:38:09.525Z,12.40
2023-03-16T07:39:04.557Z,9.30
2023-03-16T07:39:59.675Z,11.10
2023-03-16T07:40:54.806Z,12.10
2023-03-16T07:41:49.783Z,7.60
2023-03-16T07:42:44.780Z,8.90
2023-03-16T07:43:39.986Z,7.30
2023-03-16T07:44:35.091Z,10.90
2023-03-16T07:45:30.263Z,8.10
2023-03-16T07:46:25.351Z,7.60
2023-03-16T07:47:20.738Z,8.10
2023-03-16T07:48:16.190Z,9.10
2023-03-16T07:49:11.604Z,8.90
2023-03-16T07:50:07.020Z,9.60
2023-03-16T07:51:02.552Z,10.30
2023-03-16T07:51:58.023Z,9.70
2023-03-16T07:52:53.600Z,8.00
2023-03-16T07:53:48.879Z,11.70
2023-03-16T07:54:44.695Z,8.30
2023-03-16T07:55:40.005Z,9.20
2023-03-16T07:56:47.890Z,9.90
2023-03-16T07:58:56.591Z,8.20
2023-03-16T07:59:50.304Z,8.10
2023-03-16T08:00:45.593Z,8.30
2023-03-16T08:01:41.072Z,6.90
2023-03-16T08:02:36.534Z,8.80
2023-03-16T08:03:32.334Z,6.30
2023-03-16T08:04:27.583Z,9.10
2023-03-16T08:05:22.999Z,7.30
2023-03-16T08:06:18.424Z,9.10
2023-03-16T08:07:13.883Z,8.40
2023-03-16T08:08:09.436Z,7.20
2023-03-16T08:09:04.858Z,7.50
2023-03-16T08:10:00.332Z,8.10
2023-03-16T08:10:56.736Z,7.50
2023-03-16T08:11:51.257Z,7.80
2023-03-16T08:12:46.802Z,8.50
2023-03-16T08:13:42.296Z,8.50
2023-03-16T08:14:37.946Z,7.60
2023-03-16T08:15:33.122Z,9.30
2023-03-16T08:16:28.634Z,13.50
2023-03-16T08:17:24.028Z,9.70
2023-03-16T08:18:19.616Z,8.90
2023-03-16T08:19:15.186Z,9.80
2023-03-16T08:20:10.526Z,11.20
2023-03-16T08:21:06.019Z,10.80
2023-03-16T08:22:02.152Z,10.10
2023-03-16T08:22:56.859Z,9.90
2023-03-16T08:23:52.355Z,12.90
2023-03-16T08:24:47.846Z,11.20
2023-03-16T08:25:43.367Z,10.40
2023-03-16T08:26:39.617Z,9.10
2023-03-16T08:27:34.229Z,13.40
2023-03-16T08:28:29.893Z,10.80
2023-03-16T08:29:25.373Z,13.30
2023-03-16T08:30:20.800Z,12.20
2023-03-16T08:31:16.442Z,12.00
2023-03-16T08:32:11.747Z,11.90
2023-03-16T08:33:07.305Z,10.90
2023-03-16T08:34:02.759Z,12.80
2023-03-16T08:34:58.388Z,11.80
2023-03-16T08:35:53.743Z,11.60
2023-03-16T08:36:49.178Z,11.70
2023-03-16T08:37:44.614Z,11.80
2023-03-16T08:38:40.035Z,11.50
2023-03-16T08:39:35.605Z,11.40
2023-03-16T08:40:31.270Z,11.00
2023-03-16T08:41:26.473Z,15.70
2023-03-16T08:42:21.965Z,13.10
2023-03-16T08:43:17.401Z,14.40
2023-03-16T08:44:12.898Z,12.80
2023-03-16T08:45:08.547Z,11.20
2023-03-16T08:46:04.004Z,13.90
2023-03-16T08:46:59.356Z,12.60
2023-03-16T08:47:54.914Z,12.60
2023-03-16T08:48:50.379Z,13.20
2023-03-16T08:49:46.082Z,11.40
2023-03-16T08:50:41.316Z,13.40
2023-03-16T08:51:36.782Z,10.90
2023-03-16T08:52:32.294Z,12.40
2023-03-16T08:53:27.916Z,13.30
2023-03-16T08:54:23.592Z,14.00
2023-03-16T08:55:19.013Z,14.10
2023-03-16T08:56:14.566Z,16.50
2023-03-16T08:57:10.057Z,17.40
2023-03-16T08:58:05.581Z,15.90
2023-03-16T08:59:01.129Z,16.30
2023-03-16T08:59:56.685Z,21.60
2023-03-16T09:00:52.082Z,15.60
2023-03-16T09:01:47.662Z,16.30
2023-03-16T09:02:43.146Z,18.00
2023-03-16T09:03:38.542Z,12.90
2023-03-16T09:04:34.275Z,14.50
2023-03-16T09:05:29.521Z,14.70
2023-03-16T09:06:25.088Z,12.60
2023-03-16T09:07:20.678Z,14.50
2023-03-16T09:08:16.232Z,13.20
2023-03-16T09:09:11.950Z,11.50
2023-03-16T09:10:07.283Z,10.30
2023-03-16T09:11:02.725Z,11.20
2023-03-16T09:11:58.216Z,14.40
2023-03-16T09:12:53.740Z,13.90
2023-03-16T09:13:50.684Z,13.80
2023-03-16T09:14:44.672Z,15.90
2023-03-16T09:15:40.420Z,14.90
2023-03-16T09:16:35.961Z,14.60
2023-03-16T09:17:31.245Z,13.60
2023-03-16T09:18:26.815Z,14.60
2023-03-16T09:19:22.538Z,13.20
2023-03-16T09:20:33.438Z,15.00
2023-03-16T09:21:14.174Z,15.10
2023-03-16T09:22:08.612Z,14.50
2023-03-16T09:23:04.091Z,14.10
2023-03-16T09:23:59.823Z,15.40
2023-03-16T09:24:54.969Z,16.80
2023-03-16T09:25:50.404Z,11.60
2023-03-16T09:26:46.098Z,9.80
2023-03-16T09:27:41.433Z,8.50
2023-03-16T09:28:36.911Z,12.50
2023-03-16T09:29:32.592Z,10.60
2023-03-16T09:30:28.389Z,9.40
2023-03-16T09:31:23.678Z,8.50
2023-03-16T09:32:19.170Z,8.80
2023-03-16T09:33:14.645Z,9.20
2023-03-16T09:34:10.188Z,10.00
2023-03-16T09:35:05.736Z,8.80
2023-03-16T09:36:01.409Z,12.10
2023-03-16T09:36:56.699Z,11.10
2023-03-16T09:38:05.259Z,10.70
2023-03-16T09:38:48.550Z,11.80
2023-03-16T09:39:42.923Z,12.40
2023-03-16T09:40:38.438Z,10.40
2023-03-16T09:41:33.959Z,11.00
2023-03-16T09:42:29.372Z,13.10
2023-03-16T09:43:24.865Z,12.30
2023-03-16T09:44:20.700Z,11.40
2023-03-16T09:45:16.135Z,9.90
2023-03-16T09:46:11.750Z,10.40
2023-03-16T09:47:07.434Z,9.90
2023-03-16T09:48:02.776Z,10.90
2023-03-16T09:48:58.434Z,9.00
2023-03-16T09:49:53.665Z,10.40
2023-03-16T09:50:49.836Z,9.30
2023-03-16T09:51:44.764Z,9.50
2023-03-16T09:52:40.333Z,10.40
2023-03-16T09:53:35.759Z,11.40
2023-03-16T09:54:31.289Z,10.10
2023-03-16T09:55:27.290Z,9.30
2023-03-16T09:56:22.435Z,11.20
2023-03-16T09:57:17.902Z,9.80
2023-03-16T09:58:13.318Z,10.10
2023-03-16T09:59:08.919Z,8.10
2023-03-16T10:00:04.291Z,8.40
2023-03-16T10:00:59.984Z,9.20
2023-03-16T10:01:55.313Z,9.00
2023-03-16T10:02:50.778Z,9.00
2023-03-16T10:03:46.389Z,9.30
2023-03-16T10:04:41.704Z,8.20
2023-03-16T10:05:37.210Z,9.50
2023-03-16T10:06:32.807Z,7.90
2023-03-16T10:07:28.317Z,7.80
2023-03-16T10:08:23.942Z,6.80
2023-03-16T10:09:19.326Z,9.40
2023-03-16T10:10:14.785Z,6.70
2023-03-16T10:11:10.268Z,7.50
2023-03-16T10:12:05.876Z,7.70
2023-03-16T10:13:01.368Z,9.90
2023-03-16T10:13:56.982Z,10.10
2023-03-16T10:14:52.496Z,9.10
2023-03-16T10:15:47.888Z,9.70
2023-03-16T10:16:43.380Z,9.30
2023-03-16T10:17:39.014Z,8.10
2023-03-16T10:18:34.510Z,10.40
2023-03-16T10:19:29.901Z,8.90
2023-03-16T10:20:25.326Z,12.10
2023-03-16T10:21:20.721Z,10.30
2023-03-16T10:22:16.351Z,8.10
2023-03-16T10:23:11.731Z,7.60
2023-03-16T10:24:07.266Z,8.10
2023-03-16T10:25:02.632Z,9.10
2023-03-16T10:25:58.125Z,7.60
2023-03-16T10:26:53.572Z,8.10
2023-03-16T10:27:49.092Z,8.70
2023-03-16T10:28:44.874Z,9.40
2023-03-16T10:29:40.218Z,8.30
2023-03-16T10:30:35.717Z,9.30
2023-03-16T10:31:31.363Z,10.30
2023-03-16T10:32:27.635Z,8.60
2023-03-16T10:33:22.223Z,10.50
2023-03-16T10:34:17.907Z,10.40
2023-03-16T10:35:13.426Z,8.30
2023-03-16T10:36:08.892Z,10.70
2023-03-16T10:37:04.402Z,10.70
2023-03-16T10:37:59.930Z,8.70
2023-03-16T10:38:55.380Z,10.10
2023-03-16T10:39:51.199Z,9.60
2023-03-16T10:40:46.505Z,9.20
2023-03-16T10:41:42.046Z,8.20
2023-03-16T10:42:37.516Z,7.30
2023-03-16T10:43:33.015Z,10.40
2023-03-16T10:44:28.581Z,8.20
2023-03-16T10:45:24.067Z,8.80
2023-03-16T10:46:19.643Z,7.50
2023-03-16T10:47:15.145Z,7.50
2023-03-16T10:48:10.609Z,7.30
2023-03-16T10:49:06.405Z,7.00
2023-03-16T10:50:01.485Z,7.40
2023-03-16T10:50:56.852Z,10.10
2023-03-16T10:51:52.218Z,8.70
2023-03-16T10:52:47.872Z,9.40
2023-03-16T10:53:43.259Z,10.30
2023-03-16T10:54:38.935Z,8.80
2023-03-16T10:55:34.293Z,7.80
2023-03-16T10:56:29.724Z,8.30
2023-03-16T10:57:25.202Z,8.80
2023-03-16T10:58:20.706Z,10.30
2023-03-16T10:59:16.412Z,9.90
2023-03-16T11:00:11.796Z,10.70
2023-03-16T11:01:07.329Z,10.40
2023-03-16T11:02:02.866Z,7.50
2023-03-16T11:02:58.333Z,7.20
2023-03-16T11:03:54.055Z,9.30
2023-03-16T11:04:49.289Z,9.70
2023-03-16T11:05:44.737Z,10.90
2023-03-16T11:06:40.136Z,8.70
2023-03-16T11:07:35.681Z,10.30
2023-03-16T11:08:31.334Z,9.50
2023-03-16T11:09:26.972Z,9.30
2023-03-16T11:10:22.317Z,8.30
2023-03-16T11:11:17.813Z,9.00
2023-03-16T11:12:13.354Z,9.80
2023-03-16T11:13:08.826Z,9.40
2023-03-16T11:14:04.526Z,9.10
2023-03-16T11:14:59.797Z,8.10
2023-03-16T11:15:55.255Z,8.00
2023-03-16T11:16:50.951Z,10.20
2023-03-16T11:17:46.239Z,13.00
2023-03-16T11:18:41.921Z,9.70
2023-03-16T11:19:37.391Z,9.10
2023-03-16T11:20:32.932Z,9.30
2023-03-16T11:21:28.185Z,8.20
2023-03-16T11:22:23.602Z,10.40
2023-03-16T11:23:18.959Z,8.40
2023-03-16T11:24:14.440Z,9.40
2023-03-16T11:25:10.206Z,8.60
2023-03-16T11:26:05.535Z,8.20
2023-03-16T11:27:01.097Z,9.70
2023-03-16T11:27:56.486Z,8.00
2023-03-16T11:28:51.975Z,8.70
2023-03-16T11:29:47.609Z,9.00
2023-03-16T11:30:43.142Z,8.00
2023-03-16T11:31:38.518Z,8.50
2023-03-16T11:32:33.955Z,11.90
2023-03-16T11:33:29.459Z,9.40
2023-03-16T11:34:25.049Z,9.70
2023-03-16T11:35:20.394Z,8.50
2023-03-16T11:36:15.910Z,7.70
2023-03-16T11:37:11.340Z,10.80
2023-03-16T11:38:06.800Z,7.40
2023-03-16T11:39:02.402Z,7.30
2023-03-16T11:39:57.653Z,7.10
2023-03-16T11:40:53.180Z,10.00
2023-03-16T11:41:48.638Z,6.90
2023-03-16T11:42:44.097Z,8.70
2023-03-16T11:43:39.636Z,7.40
2023-03-16T11:44:35.085Z,9.40
2023-03-16T11:45:30.955Z,7.30
2023-03-16T11:46:26.108Z,10.20
2023-03-16T11:47:21.528Z,8.60
2023-03-16T11:48:17.092Z,8.00
2023-03-16T11:49:12.769Z,10.90
2023-03-16T11:50:07.958Z,8.20
2023-03-16T11:51:03.486Z,7.50
2023-03-16T11:51:59.156Z,8.30
2023-03-16T11:52:54.481Z,10.20
2023-03-16T11:53:50.086Z,7.20
2023-03-16T11:54:45.362Z,8.00
2023-03-16T11:55:40.908Z,7.70
2023-03-16T11:56:36.564Z,8.40
2023-03-16T11:57:31.995Z,7.70
2023-03-16T11:58:27.543Z,6.10
2023-03-16T11:59:23.037Z,9.90
2023-03-16T12:00:18.459Z,6.30
2023-03-16T12:01:14.004Z,6.30
2023-03-16T12:02:09.529Z,6.00